Time;durP1;ratioP1;P1;durP2;ratioP2;P2;SDS_P1;SDS_P2;PMS_P1;PMS_P2;Temp;Humidity;BMP_temperature;BMP_pressure;BME280_temperature;BME280_humidity;BME280_pressure;Samples;Min_cycle;Max_cycle;Signal;HPM_P1;HPM_P2
2024/01/09 00:01:12;;;;;;;;;;;18.80;61.50;;;;;;7320881;19;9331;-68
2024/01/09 00:03:41;;;;;;;;;;;18.70;61.50;;;;;;7322714;19;9344;-68
2024/01/09 00:06:19;;;;;;;;;;;18.60;61.60;;;;;;7321131;19;9584;-68
2024/01/09 00:08:49;;;;;;;;;;;18.60;61.60;;;;;;7322512;19;9671;-68
2024/01/09 00:11:18;;;;;;;;;;;18.60;61.70;;;;;;7323081;19;9379;-67
2024/01/09 00:13:47;;;;;;;;;;;18.50;61.80;;;;;;7322240;19;9246;-67
2024/01/09 00:16:16;;;;;;;;;;;18.50;61.80;;;;;;7320218;19;11151;-68
2024/01/09 00:18:45;;;;;;;;;;;18.40;62.00;;;;;;7322665;19;9439;-67
2024/01/09 00:21:14;;;;;;;;;;;18.40;61.90;;;;;;7323071;19;9448;-67
2024/01/09 00:23:46;;;;;;;;;;;18.30;61.90;;;;;;7321896;19;9319;-67
2024/01/09 00:26:15;;;;;;;;;;;18.30;62.10;;;;;;7319570;19;9296;-68
2024/01/09 00:28:44;;;;;;;;;;;18.30;62.10;;;;;;7321804;19;9435;-67
2024/01/09 00:31:13;;;;;;;;;;;18.30;62.30;;;;;;7321927;19;9469;-68
2024/01/09 00:33:42;;;;;;;;;;;18.20;62.20;;;;;;7320936;19;9628;-68
2024/01/09 00:36:11;;;;;;;;;;;18.20;62.30;;;;;;7320221;19;9368;-68
2024/01/09 00:38:40;;;;;;;;;;;18.20;62.30;;;;;;7321401;19;9185;-68
2024/01/09 00:41:31;;;;;;;;;;;18.10;62.20;;;;;;7317834;19;9570;-68
2024/01/09 00:44:00;;;;;;;;;;;18.10;62.40;;;;;;7320854;19;9132;-68
2024/01/09 00:46:30;;;;;;;;;;;18.00;62.30;;;;;;7317336;19;9233;-68
2024/01/09 00:48:59;;;;;;;;;;;18.00;62.30;;;;;;7321952;19;9328;-67
2024/01/09 00:51:28;;;;;;;;;;;18.00;62.30;;;;;;7320115;19;9128;-67
2024/01/09 00:53:58;;;;;;;;;;;18.00;62.40;;;;;;7320047;19;11201;-67
2024/01/09 00:56:27;;;;;;;;;;;18.00;62.40;;;;;;7317939;19;10319;-67
2024/01/09 00:58:59;;;;;;;;;;;17.90;62.30;;;;;;7319390;19;9495;-67
2024/01/09 01:01:28;;;;;;;;;;;17.90;62.40;;;;;;7320705;19;10759;-67
2024/01/09 01:03:57;;;;;;;;;;;17.90;62.40;;;;;;7315909;19;9327;-67
2024/01/09 01:06:26;;;;;;;;;;;17.90;62.30;;;;;;7318839;19;9664;-67
2024/01/09 01:08:55;;;;;;;;;;;17.80;62.00;;;;;;7321809;19;10237;-67
2024/01/09 01:11:24;;;;;;;;;;;17.90;62.00;;;;;;7321551;19;9165;-68
2024/01/09 01:13:52;;;;;;;;;;;17.90;62.10;;;;;;7320760;19;9124;-68
2024/01/09 01:16:24;;;;;;;;;;;17.90;62.10;;;;;;7318185;19;9324;-67
2024/01/09 01:18:53;;;;;;;;;;;17.90;62.00;;;;;;7320666;19;9383;-67
2024/01/09 01:21:22;;;;;;;;;;;17.90;61.80;;;;;;7321186;19;9417;-68
2024/01/09 01:23:51;;;;;;;;;;;18.00;61.80;;;;;;7320563;19;11143;-68
2024/01/09 01:26:20;;;;;;;;;;;18.00;61.70;;;;;;7318843;19;9248;-68
2024/01/09 01:28:49;;;;;;;;;;;18.10;61.50;;;;;;7318036;19;9132;-68
2024/01/09 01:31:18;;;;;;;;;;;18.20;61.50;;;;;;7320239;19;9331;-68
2024/01/09 01:33:50;;;;;;;;;;;18.20;61.40;;;;;;7320145;19;9308;-68
2024/01/09 01:36:19;;;;;;;;;;;18.30;61.20;;;;;;7318902;19;9290;-68
2024/01/09 01:38:48;;;;;;;;;;;18.30;61.10;;;;;;7316303;19;9335;-68
2024/01/09 01:41:17;;;;;;;;;;;18.30;61.00;;;;;;7318292;19;9134;-68
2024/01/09 01:43:46;;;;;;;;;;;18.40;61.10;;;;;;7319122;19;9638;-68
2024/01/09 01:46:16;;;;;;;;;;;18.40;61.30;;;;;;7318412;19;9424;-69
2024/01/09 01:48:45;;;;;;;;;;;18.50;61.30;;;;;;7319184;19;9473;-67
2024/01/09 01:51:17;;;;;;;;;;;18.50;61.40;;;;;;7320710;19;9575;-67
2024/01/09 01:53:46;;;;;;;;;;;18.60;61.30;;;;;;7316670;19;9355;-68
2024/01/09 01:56:15;;;;;;;;;;;18.80;61.20;;;;;;7316520;19;9304;-68
2024/01/09 01:58:44;;;;;;;;;;;18.90;61.10;;;;;;7318108;19;9127;-68
2024/01/09 02:01:13;;;;;;;;;;;18.90;61.00;;;;;;7321353;19;9115;-68
2024/01/09 02:03:42;;;;;;;;;;;19.00;60.90;;;;;;7319717;19;9505;-68
2024/01/09 02:06:16;;;;;;;;;;;19.00;60.90;;;;;;7319410;19;9228;-68
2024/01/09 02:08:46;;;;;;;;;;;19.10;60.80;;;;;;7317683;19;9293;-67
2024/01/09 02:11:15;;;;;;;;;;;19.10;60.70;;;;;;7319836;19;9165;-68
2024/01/09 02:13:44;;;;;;;;;;;19.10;60.70;;;;;;7315955;19;9216;-68
2024/01/09 02:16:13;;;;;;;;;;;19.10;60.60;;;;;;7318715;19;10436;-68
2024/01/09 02:18:42;;;;;;;;;;;19.00;60.60;;;;;;7317423;19;9484;-68
2024/01/09 02:21:11;;;;;;;;;;;19.00;60.50;;;;;;7321307;19;9256;-68
2024/01/09 02:23:44;;;;;;;;;;;19.00;60.10;;;;;;7317674;19;9307;-68
2024/01/09 02:26:15;;;;;;;;;;;18.90;60.10;;;;;;7319868;19;9229;-68
2024/01/09 02:28:50;;;;;;;;;;;18.90;60.10;;;;;;7317592;19;9520;-68
2024/01/09 02:31:21;;;;;;;;;;;18.90;60.10;;;;;;7319616;19;9236;-68
2024/01/09 02:33:50;;;;;;;;;;;18.80;60.20;;;;;;7318834;19;9586;-68
2024/01/09 02:36:19;;;;;;;;;;;18.70;60.20;;;;;;7317036;19;9497;-68
2024/01/09 02:38:48;;;;;;;;;;;18.70;60.20;;;;;;7318008;19;10797;-68
2024/01/09 02:41:17;;;;;;;;;;;18.60;60.20;;;;;;7319248;19;9217;-68
2024/01/09 02:43:46;;;;;;;;;;;18.60;60.40;;;;;;7319484;19;10579;-69
2024/01/09 02:46:15;;;;;;;;;;;18.50;60.50;;;;;;7316395;19;11002;-67
2024/01/09 02:49:06;;;;;;;;;;;18.50;60.50;;;;;;7316807;19;10216;-68
2024/01/09 02:51:35;;;;;;;;;;;18.40;60.70;;;;;;7317863;19;9421;-67
2024/01/09 02:54:04;;;;;;;;;;;18.30;60.70;;;;;;7316336;19;9475;-67
2024/01/09 02:56:36;;;;;;;;;;;18.30;60.80;;;;;;7317118;19;9508;-68
2024/01/09 02:59:05;;;;;;;;;;;18.30;60.90;;;;;;7316310;19;9238;-67
2024/01/09 03:01:34;;;;;;;;;;;18.20;61.00;;;;;;7318566;19;9270;-67
2024/01/09 03:04:26;;;;;;;;;;;18.10;61.10;;;;;;7315408;19;9410;-67
2024/01/09 03:07:14;;;;;;;;;;;18.10;61.10;;;;;;7312589;19;9309;-68
2024/01/09 03:09:43;;;;;;;;;;;18.00;61.10;;;;;;7310161;19;10926;-67
2024/01/09 03:12:12;;;;;;;;;;;18.00;61.20;;;;;;7317457;19;11122;-67
2024/01/09 03:14:41;;;;;;;;;;;18.00;61.30;;;;;;7317127;19;9157;-67
2024/01/09 03:17:11;;;;;;;;;;;17.90;61.10;;;;;;7316055;19;9471;-68
2024/01/09 03:19:43;;;;;;;;;;;17.90;61.20;;;;;;7316216;19;9384;-68
2024/01/09 03:22:12;;;;;;;;;;;17.90;61.20;;;;;;7317572;19;9503;-68
2024/01/09 03:24:41;;;;;;;;;;;17.90;61.30;;;;;;7315576;19;10353;-68
2024/01/09 03:27:10;;;;;;;;;;;17.90;61.10;;;;;;7314751;19;9288;-68
2024/01/09 03:29:39;;;;;;;;;;;17.90;61.00;;;;;;7316892;19;10719;-68
2024/01/09 03:32:28;;;;;;;;;;;18.00;61.00;;;;;;7315669;19;9506;-68
2024/01/09 03:34:59;;;;;;;;;;;18.00;60.90;;;;;;7316182;19;9493;-68
2024/01/09 03:37:28;;;;;;;;;;;18.10;60.80;;;;;;7314649;19;9241;-67
2024/01/09 03:39:57;;;;;;;;;;;18.10;60.70;;;;;;7316134;19;9315;-68
2024/01/09 03:42:26;;;;;;;;;;;18.20;61.30;;;;;;7317422;19;9761;-68
2024/01/09 03:44:55;;;;;;;;;;;18.20;61.20;;;;;;7315500;19;9253;-68
2024/01/09 03:47:24;;;;;;;;;;;18.20;60.60;;;;;;7315852;19;9245;-68
2024/01/09 03:49:53;;;;;;;;;;;18.20;60.50;;;;;;7316090;19;9218;-68
2024/01/09 03:52:25;;;;;;;;;;;18.20;60.50;;;;;;7317961;19;9294;-68
2024/01/09 03:54:53;;;;;;;;;;;18.30;60.70;;;;;;7315214;19;9253;-69
2024/01/09 03:57:22;;;;;;;;;;;18.30;60.80;;;;;;7312753;19;9445;-68
2024/01/09 03:59:51;;;;;;;;;;;18.40;60.80;;;;;;7314885;19;9244;-68
2024/01/09 04:02:20;;;;;;;;;;;18.50;60.80;;;;;;7316180;19;10479;-68
2024/01/09 04:04:49;;;;;;;;;;;18.60;60.60;;;;;;7315140;19;9529;-68
2024/01/09 04:07:18;;;;;;;;;;;18.60;60.50;;;;;;7314851;19;9415;-68
2024/01/09 04:09:49;;;;;;;;;;;18.80;60.60;;;;;;7315816;19;9285;-69
2024/01/09 04:12:18;;;;;;;;;;;18.80;60.40;;;;;;7313689;19;10225;-68
2024/01/09 04:14:47;;;;;;;;;;;18.90;60.30;;;;;;7315960;19;9178;-68
2024/01/09 04:17:16;;;;;;;;;;;19.00;60.30;;;;;;7319061;19;9481;-68
2024/01/09 04:19:45;;;;;;;;;;;19.00;60.20;;;;;;7322526;19;11155;-68
2024/01/09 04:22:14;;;;;;;;;;;19.10;60.30;;;;;;7323133;19;11141;-68
2024/01/09 04:24:43;;;;;;;;;;;19.00;60.70;;;;;;7322440;19;9290;-68
2024/01/09 04:27:15;;;;;;;;;;;19.10;60.00;;;;;;7319762;19;9708;-69
2024/01/09 04:29:44;;;;;;;;;;;19.00;59.90;;;;;;7323523;19;10042;-68
2024/01/09 04:32:13;;;;;;;;;;;19.00;60.00;;;;;;7321805;19;9212;-68
2024/01/09 04:34:42;;;;;;;;;;;19.00;60.00;;;;;;7322943;19;9217;-68
2024/01/09 04:37:10;;;;;;;;;;;18.90;59.90;;;;;;7319617;19;9263;-68
2024/01/09 04:39:39;;;;;;;;;;;18.90;60.00;;;;;;7321118;19;9659;-68
2024/01/09 04:42:08;;;;;;;;;;;18.90;59.50;;;;;;7322608;19;9421;-68
2024/01/09 04:44:40;;;;;;;;;;;18.90;59.50;;;;;;7319031;19;9483;-68
2024/01/09 04:47:13;;;;;;;;;;;18.80;59.40;;;;;;7318199;19;10337;-68
2024/01/09 04:49:42;;;;;;;;;;;18.80;59.50;;;;;;7322257;19;9198;-69
2024/01/09 04:52:11;;;;;;;;;;;18.70;59.50;;;;;;7322578;19;9493;-68
2024/01/09 04:54:40;;;;;;;;;;;18.70;59.60;;;;;;7320239;19;10710;-68
2024/01/09 04:57:09;;;;;;;;;;;18.60;59.60;;;;;;7321063;19;11443;-68
2024/01/09 04:59:42;;;;;;;;;;;18.60;59.70;;;;;;7322913;19;9224;-68
2024/01/09 05:02:12;;;;;;;;;;;18.50;59.80;;;;;;7322634;19;9396;-68
2024/01/09 05:04:41;;;;;;;;;;;18.50;60.00;;;;;;7325402;19;9393;-68
2024/01/09 05:07:10;;;;;;;;;;;18.40;60.10;;;;;;7319853;19;9452;-68
2024/01/09 05:09:39;;;;;;;;;;;18.30;60.00;;;;;;7319244;19;9611;-68
2024/01/09 05:12:09;;;;;;;;;;;18.30;60.10;;;;;;7318771;19;9213;-68
2024/01/09 05:15:00;;;;;;;;;;;18.20;60.10;;;;;;7318763;19;9189;-69
2024/01/09 05:17:29;;;;;;;;;;;18.10;60.20;;;;;;7319915;19;9466;-69
2024/01/09 05:19:59;;;;;;;;;;;18.10;60.30;;;;;;7320594;19;9483;-68
2024/01/09 05:22:48;;;;;;;;;;;18.10;60.40;;;;;;7318507;19;9575;-68
2024/01/09 05:25:17;;;;;;;;;;;18.00;60.30;;;;;;7321004;19;9405;-68
2024/01/09 05:27:46;;;;;;;;;;;18.00;60.40;;;;;;7320057;19;9125;-68
2024/01/09 05:30:18;;;;;;;;;;;18.00;60.40;;;;;;7317766;19;9363;-68
2024/01/09 05:32:47;;;;;;;;;;;18.00;60.30;;;;;;7321425;19;10391;-68
2024/01/09 05:35:16;;;;;;;;;;;18.00;60.30;;;;;;7320675;19;9255;-68
2024/01/09 05:37:45;;;;;;;;;;;18.10;60.30;;;;;;7320147;19;10404;-69
2024/01/09 05:40:15;;;;;;;;;;;18.10;60.20;;;;;;7319393;19;9185;-68
2024/01/09 05:43:04;;;;;;;;;;;18.10;60.20;;;;;;7315615;19;9563;-68
2024/01/09 05:45:35;;;;;;;;;;;18.20;60.10;;;;;;7319486;19;9368;-68
2024/01/09 05:48:04;;;;;;;;;;;18.20;60.40;;;;;;7320000;19;9264;-68
2024/01/09 05:50:33;;;;;;;;;;;18.30;60.30;;;;;;7318721;19;9523;-68
2024/01/09 05:53:03;;;;;;;;;;;18.30;60.00;;;;;;7316406;19;9328;-69
2024/01/09 05:55:31;;;;;;;;;;;18.30;59.80;;;;;;7319452;19;9578;-68
2024/01/09 05:58:00;;;;;;;;;;;18.30;60.30;;;;;;7317864;19;9591;-68
2024/01/09 06:00:30;;;;;;;;;;;18.30;59.60;;;;;;7317320;19;9244;-68
2024/01/09 06:03:02;;;;;;;;;;;18.30;59.70;;;;;;7319293;19;9250;-68
2024/01/09 06:05:30;;;;;;;;;;;18.30;60.10;;;;;;7320831;19;9205;-68
2024/01/09 06:07:59;;;;;;;;;;;18.40;60.10;;;;;;7318122;19;9469;-68
2024/01/09 06:10:28;;;;;;;;;;;18.50;60.10;;;;;;7315714;19;10236;-68
2024/01/09 06:12:57;;;;;;;;;;;18.60;60.00;;;;;;7318883;19;9518;-68
2024/01/09 06:15:26;;;;;;;;;;;18.70;60.00;;;;;;7318267;19;9272;-69
2024/01/09 06:17:55;;;;;;;;;;;18.90;59.80;;;;;;7318351;19;9284;-68
2024/01/09 06:20:26;;;;;;;;;;;18.90;59.60;;;;;;7316936;19;9397;-68
2024/01/09 06:22:55;;;;;;;;;;;19.00;59.60;;;;;;7314726;19;9172;-68
2024/01/09 06:25:25;;;;;;;;;;;19.10;59.60;;;;;;7318107;19;9439;-69
2024/01/09 06:27:54;;;;;;;;;;;19.10;59.60;;;;;;7318693;19;9170;-68
2024/01/09 06:30:23;;;;;;;;;;;19.10;59.50;;;;;;7317100;19;9466;-71
2024/01/09 06:32:51;;;;;;;;;;;19.10;59.60;;;;;;7316286;19;9527;-68
2024/01/09 06:35:20;;;;;;;;;;;19.10;59.50;;;;;;7316197;19;9207;-68
2024/01/09 06:37:52;;;;;;;;;;;19.10;59.40;;;;;;7317605;19;9237;-68
2024/01/09 06:40:23;;;;;;;;;;;19.00;59.50;;;;;;7310240;19;11180;-69
2024/01/09 06:42:53;;;;;;;;;;;19.00;59.40;;;;;;7316863;19;9276;-68
2024/01/09 06:45:22;;;;;;;;;;;19.00;59.30;;;;;;7314844;19;9142;-68
2024/01/09 06:47:51;;;;;;;;;;;19.00;59.10;;;;;;7315058;19;9678;-68
2024/01/09 06:50:20;;;;;;;;;;;18.90;58.90;;;;;;7316858;19;9328;-69
2024/01/09 06:52:52;;;;;;;;;;;18.90;58.80;;;;;;7317588;19;9282;-68
2024/01/09 06:55:21;;;;;;;;;;;18.80;58.80;;;;;;7316910;19;9762;-69
2024/01/09 06:57:50;;;;;;;;;;;18.80;58.90;;;;;;7316157;19;9422;-69
2024/01/09 07:00:19;;;;;;;;;;;18.70;58.90;;;;;;7314184;19;9202;-69
2024/01/09 07:02:48;;;;;;;;;;;18.70;59.00;;;;;;7316287;19;9588;-69
2024/01/09 07:05:17;;;;;;;;;;;18.60;59.00;;;;;;7317806;19;9173;-68
2024/01/09 07:07:46;;;;;;;;;;;18.50;59.10;;;;;;7316275;19;9177;-69
2024/01/09 07:10:18;;;;;;;;;;;18.50;59.20;;;;;;7310235;19;9337;-68
2024/01/09 07:12:47;;;;;;;;;;;18.40;59.60;;;;;;7314973;19;9497;-68
2024/01/09 07:15:16;;;;;;;;;;;18.40;59.40;;;;;;7316035;19;9198;-69
2024/01/09 07:17:45;;;;;;;;;;;18.30;59.70;;;;;;7314933;19;9440;-77
2024/01/09 07:20:14;;;;;;;;;;;18.20;59.90;;;;;;7313647;19;9551;-69
2024/01/09 07:22:43;;;;;;;;;;;18.20;60.00;;;;;;7313943;19;9616;-68
2024/01/09 07:25:14;;;;;;;;;;;18.20;60.20;;;;;;7318017;19;9230;-68
2024/01/09 07:27:46;;;;;;;;;;;18.10;60.20;;;;;;7314973;19;9482;-69
2024/01/09 07:30:16;;;;;;;;;;;18.00;60.20;;;;;;7313622;19;9477;-68
2024/01/09 07:32:45;;;;;;;;;;;18.00;60.30;;;;;;7316184;19;9175;-68
2024/01/09 07:35:37;;;;;;;;;;;18.00;60.10;;;;;;7314656;19;9336;-69
2024/01/09 07:38:06;;;;;;;;;;;18.00;60.10;;;;;;7317249;19;9520;-69
2024/01/09 07:40:36;;;;;;;;;;;18.00;60.70;;;;;;7314025;19;9229;-68
2024/01/09 07:43:08;;;;;;;;;;;18.00;60.10;;;;;;7317238;19;9505;-68
2024/01/09 07:45:37;;;;;;;;;;;18.00;60.10;;;;;;7316799;19;10144;-68
2024/01/09 07:48:06;;;;;;;;;;;18.00;60.00;;;;;;7316582;19;11401;-68
2024/01/09 07:50:35;;;;;;;;;;;18.00;60.00;;;;;;7315666;19;9734;-69
2024/01/09 07:53:05;;;;;;;;;;;18.10;60.00;;;;;;7323660;19;9497;-68
2024/01/09 07:55:33;;;;;;;;;;;18.20;60.00;;;;;;7321973;19;9266;-69
2024/01/09 07:58:04;;;;;;;;;;;18.20;60.20;;;;;;7322871;19;9289;-69
2024/01/09 08:00:36;;;;;;;;;;;18.30;60.10;;;;;;7322190;19;9219;-69
2024/01/09 08:03:07;;;;;;;;;;;18.30;60.10;;;;;;7323759;19;9723;-69
2024/01/09 08:05:36;;;;;;;;;;;18.40;60.10;;;;;;7323406;19;9186;-69
2024/01/09 08:08:05;;;;;;;;;;;18.40;60.00;;;;;;7323521;19;9145;-69
2024/01/09 08:10:34;;;;;;;;;;;18.50;60.00;;;;;;7320224;19;9754;-69
2024/01/09 08:13:03;;;;;;;;;;;18.60;60.00;;;;;;7323954;19;9237;-69
2024/01/09 08:15:32;;;;;;;;;;;18.60;59.90;;;;;;7322681;19;9130;-69
2024/01/09 08:18:24;;;;;;;;;;;18.80;59.90;;;;;;7318615;19;8981;-69
2024/01/09 08:20:53;;;;;;;;;;;18.80;59.70;;;;;;7321571;19;9124;-69
2024/01/09 08:23:22;;;;;;;;;;;18.90;59.70;;;;;;7323036;19;9205;-69
2024/01/09 08:25:51;;;;;;;;;;;19.00;59.50;;;;;;7319534;19;10879;-69
2024/01/09 08:28:21;;;;;;;;;;;19.10;59.60;;;;;;7322074;19;10412;-69
2024/01/09 08:30:50;;;;;;;;;;;19.10;59.40;;;;;;7319988;19;9605;-69
2024/01/09 08:33:19;;;;;;;;;;;19.10;59.60;;;;;;7321913;19;9288;-68
2024/01/09 08:35:51;;;;;;;;;;;19.10;59.50;;;;;;7321293;19;9107;-69
2024/01/09 08:38:20;;;;;;;;;;;19.10;59.50;;;;;;7319265;19;9344;-69
2024/01/09 08:40:53;;;;;;;;;;;19.10;59.50;;;;;;7320560;19;9613;-69
2024/01/09 08:43:22;;;;;;;;;;;19.00;59.30;;;;;;7321315;19;9233;-69
2024/01/09 08:45:51;;;;;;;;;;;19.00;59.50;;;;;;7321564;19;9205;-69
2024/01/09 08:48:20;;;;;;;;;;;19.00;59.50;;;;;;7321109;19;9415;-69
2024/01/09 08:50:51;;;;;;;;;;;18.90;59.40;;;;;;7317827;19;11212;-69
2024/01/09 08:53:24;;;;;;;;;;;18.90;59.40;;;;;;7321355;19;10121;-69
2024/01/09 08:55:53;;;;;;;;;;;18.80;59.30;;;;;;7322083;19;9536;-69
2024/01/09 08:58:21;;;;;;;;;;;18.80;59.50;;;;;;7321996;19;9276;-69
2024/01/09 09:00:52;;;;;;;;;;;18.80;59.60;;;;;;7319909;19;9819;-68
2024/01/09 09:03:20;;;;;;;;;;;18.70;59.50;;;;;;7320878;19;9260;-69
2024/01/09 09:05:52;;;;;;;;;;;18.60;59.60;;;;;;7322129;19;10720;-69
2024/01/09 09:08:21;;;;;;;;;;;18.60;59.80;;;;;;7321478;19;9247;-69
2024/01/09 09:10:50;;;;;;;;;;;18.50;59.90;;;;;;7320023;19;9255;-69
2024/01/09 09:13:19;;;;;;;;;;;18.50;60.00;;;;;;7320585;19;9256;-68
2024/01/09 09:15:48;;;;;;;;;;;18.40;60.10;;;;;;7318853;19;9178;-69
2024/01/09 09:18:17;;;;;;;;;;;18.40;60.20;;;;;;7318961;19;9502;-69
2024/01/09 09:20:46;;;;;;;;;;;18.30;60.40;;;;;;7319001;19;9272;-69
2024/01/09 09:23:17;;;;;;;;;;;18.30;60.40;;;;;;7314476;19;9144;-69
2024/01/09 09:25:46;;;;;;;;;;;18.30;60.60;;;;;;7319832;19;9279;-69
2024/01/09 09:28:35;;;;;;;;;;;18.30;60.60;;;;;;7318894;19;9394;-69
2024/01/09 09:31:05;;;;;;;;;;;18.30;60.70;;;;;;7317892;19;9650;-69
2024/01/09 09:33:34;;;;;;;;;;;18.30;60.80;;;;;;7314520;19;9735;-69
2024/01/09 09:36:07;;;;;;;;;;;18.30;60.80;;;;;;7319734;19;9228;-68
2024/01/09 09:38:39;;;;;;;;;;;18.30;60.70;;;;;;7317814;19;9490;-69
2024/01/09 09:41:08;;;;;;;;;;;18.30;60.60;;;;;;7320699;19;9526;-69
2024/01/09 09:43:38;;;;;;;;;;;18.30;60.80;;;;;;7319037;19;9670;-69
2024/01/09 09:46:17;;;;;;;;;;;18.40;60.40;;;;;;7318748;19;9714;-69
2024/01/09 09:48:47;;;;;;;;;;;18.40;60.30;;;;;;7318234;19;9230;-69
2024/01/09 09:51:15;;;;;;;;;;;18.40;60.30;;;;;;7318864;19;9406;-69
2024/01/09 09:53:47;;;;;;;;;;;18.50;60.30;;;;;;7320484;19;10774;-68
2024/01/09 09:56:17;;;;;;;;;;;18.60;60.20;;;;;;7318745;19;9161;-69
2024/01/09 09:58:46;;;;;;;;;;;18.60;60.20;;;;;;7318867;19;10085;-69
2024/01/09 10:01:16;;;;;;;;;;;18.60;60.10;;;;;;7318121;19;9140;-69
2024/01/09 10:03:52;;;;;;;;;;;18.70;60.30;;;;;;7320898;19;9223;-69
2024/01/09 10:06:21;;;;;;;;;;;18.70;60.10;;;;;;7317820;19;9551;-69
2024/01/09 10:08:56;;;;;;;;;;;18.70;60.00;;;;;;7318288;19;9256;-69
2024/01/09 10:11:25;;;;;;;;;;;18.70;60.00;;;;;;7320051;19;9303;-69
2024/01/09 10:13:55;;;;;;;;;;;18.80;60.10;;;;;;7317906;19;9170;-69
2024/01/09 10:16:24;;;;;;;;;;;18.80;60.30;;;;;;7322315;19;9383;-69
2024/01/09 10:18:56;;;;;;;;;;;18.90;60.30;;;;;;7321122;19;9364;-69
2024/01/09 10:21:25;;;;;;;;;;;18.90;60.20;;;;;;7320978;19;9120;-69
2024/01/09 10:23:58;;;;;;;;;;;19.00;60.20;;;;;;7320548;19;9254;-69
2024/01/09 10:26:29;;;;;;;;;;;19.20;60.10;;;;;;7319449;19;9308;-70
2024/01/09 10:29:01;;;;;;;;;;;19.20;59.90;;;;;;7320175;19;11114;-68
2024/01/09 10:31:31;;;;;;;;;;;19.30;59.90;;;;;;7318961;19;9413;-68
2024/01/09 10:34:20;;;;;;;;;;;19.40;59.90;;;;;;7318300;19;9187;-68
2024/01/09 10:36:50;;;;;;;;;;;19.40;59.80;;;;;;7319012;19;9296;-68
2024/01/09 10:39:21;;;;;;;;;;;19.50;59.80;;;;;;7317767;19;9307;-68
2024/01/09 10:41:51;;;;;;;;;;;19.50;59.80;;;;;;7316492;19;9217;-68
2024/01/09 10:44:22;;;;;;;;;;;19.40;59.70;;;;;;7319553;19;9224;-68
2024/01/09 10:46:52;;;;;;;;;;;19.50;59.80;;;;;;7318681;19;9310;-68
2024/01/09 10:49:23;;;;;;;;;;;19.40;59.60;;;;;;7320088;19;9226;-68
2024/01/09 10:51:54;;;;;;;;;;;19.40;59.70;;;;;;7318029;19;9476;-68
2024/01/09 10:54:28;;;;;;;;;;;19.40;59.60;;;;;;7319720;19;9500;-68
2024/01/09 10:57:00;;;;;;;;;;;19.40;59.60;;;;;;7318580;19;9202;-68
2024/01/09 10:59:30;;;;;;;;;;;19.40;59.50;;;;;;7318080;19;9268;-68
2024/01/09 11:01:59;;;;;;;;;;;19.30;59.50;;;;;;7316147;19;9289;-69
2024/01/09 11:04:28;;;;;;;;;;;19.30;59.60;;;;;;7319051;19;9411;-68
2024/01/09 11:06:58;;;;;;;;;;;19.30;59.70;;;;;;7317321;19;9649;-75
2024/01/09 11:09:32;;;;;;;;;;;19.20;59.70;;;;;;7313699;19;9611;-76
2024/01/09 11:12:01;;;;;;;;;;;19.20;59.90;;;;;;7316845;19;9489;-74
2024/01/09 11:14:32;;;;;;;;;;;19.10;59.90;;;;;;7318567;19;9242;-76
2024/01/09 11:17:03;;;;;;;;;;;19.10;60.10;;;;;;7316276;19;8990;-75
2024/01/09 11:19:52;;;;;;;;;;;19.10;60.10;;;;;;7315789;19;9507;-75
2024/01/09 11:22:22;;;;;;;;;;;19.10;60.30;;;;;;7317293;19;9605;-74
2024/01/09 11:24:58;;;;;;;;;;;19.10;60.40;;;;;;7315623;19;10230;-74
2024/01/09 11:27:41;;;;;;;;;;;19.10;60.50;;;;;;7324021;19;9327;-75
2024/01/09 11:30:14;;;;;;;;;;;19.10;60.50;;;;;;7322719;19;9527;-76
2024/01/09 11:32:45;;;;;;;;;;;19.00;60.60;;;;;;7323302;19;9320;-80
2024/01/09 11:35:16;;;;;;;;;;;19.00;60.70;;;;;;7323591;19;9842;-77
2024/01/09 11:37:48;;;;;;;;;;;19.00;60.70;;;;;;7324312;19;9592;-78
2024/01/09 11:40:21;;;;;;;;;;;19.00;60.70;;;;;;7319705;19;9145;-78
2024/01/09 11:42:52;;;;;;;;;;;19.00;60.80;;;;;;7325073;19;9529;-79
2024/01/09 11:45:26;;;;;;;;;;;19.00;60.80;;;;;;7325902;19;9269;-79
2024/01/09 11:47:56;;;;;;;;;;;19.00;60.90;;;;;;7321961;19;9447;-73
2024/01/09 11:50:25;;;;;;;;;;;18.90;60.90;;;;;;7319556;19;9132;-76
2024/01/09 11:52:58;;;;;;;;;;;18.90;61.00;;;;;;7315284;19;9617;-74
2024/01/09 11:55:30;;;;;;;;;;;18.90;61.10;;;;;;7323380;19;9411;-77
2024/01/09 11:58:03;;;;;;;;;;;19.00;61.20;;;;;;7324120;19;9147;-73
2024/01/09 12:00:34;;;;;;;;;;;19.00;61.10;;;;;;7322084;19;9221;-74
2024/01/09 12:03:03;;;;;;;;;;;19.00;61.20;;;;;;7320408;19;9507;-73
2024/01/09 12:05:31;;;;;;;;;;;19.00;61.20;;;;;;7322403;19;9314;-74
2024/01/09 12:08:03;;;;;;;;;;;19.00;61.20;;;;;;7319843;19;10393;-77
2024/01/09 12:10:34;;;;;;;;;;;19.00;61.90;;;;;;7319903;19;9311;-69
2024/01/09 12:13:05;;;;;;;;;;;19.00;61.30;;;;;;7318636;19;9249;-70
2024/01/09 12:15:34;;;;;;;;;;;19.00;61.40;;;;;;7320728;19;9605;-69
2024/01/09 12:18:03;;;;;;;;;;;19.00;61.40;;;;;;7318595;19;9541;-70
2024/01/09 12:20:32;;;;;;;;;;;19.00;61.40;;;;;;7318352;19;9192;-70
2024/01/09 12:23:02;;;;;;;;;;;19.00;61.40;;;;;;7320047;19;9440;-69
2024/01/09 12:25:34;;;;;;;;;;;19.00;61.40;;;;;;7317313;19;9431;-70
2024/01/09 12:28:05;;;;;;;;;;;19.10;61.50;;;;;;7317127;19;9899;-66
2024/01/09 12:30:54;;;;;;;;;;;19.10;61.60;;;;;;7315606;19;9591;-67
2024/01/09 12:33:24;;;;;;;;;;;19.10;61.50;;;;;;7321356;19;8978;-66
2024/01/09 12:35:53;;;;;;;;;;;19.10;61.50;;;;;;7320714;19;9304;-66
2024/01/09 12:38:24;;;;;;;;;;;19.10;61.50;;;;;;7320360;19;9231;-66
2024/01/09 12:41:02;;;;;;;;;;;19.10;61.60;;;;;;7312404;19;9645;-66
2024/01/09 12:43:31;;;;;;;;;;;19.10;61.70;;;;;;7315201;19;11569;-66
2024/01/09 12:46:03;;;;;;;;;;;19.20;61.60;;;;;;7320280;19;9562;-66
2024/01/09 12:48:33;;;;;;;;;;;19.20;61.70;;;;;;7306150;19;9415;-66
2024/01/09 12:51:03;;;;;;;;;;;19.20;61.60;;;;;;7319899;19;9033;-66
2024/01/09 12:53:34;;;;;;;;;;;19.20;61.70;;;;;;7321012;19;9524;-67
2024/01/09 12:56:13;;;;;;;;;;;19.20;61.60;;;;;;7320411;19;10007;-67
2024/01/09 12:58:45;;;;;;;;;;;19.30;61.60;;;;;;7313933;19;11198;-67
2024/01/09 13:01:14;;;;;;;;;;;19.30;61.50;;;;;;7313360;19;9277;-67
2024/01/09 13:03:43;;;;;;;;;;;19.30;61.50;;;;;;7320614;19;10151;-67
2024/01/09 13:06:13;;;;;;;;;;;19.30;61.60;;;;;;7318654;19;9519;-66
2024/01/09 13:08:42;;;;;;;;;;;19.30;61.60;;;;;;7322052;19;9626;-67
2024/01/09 13:11:14;;;;;;;;;;;19.30;61.50;;;;;;7321001;19;9982;-66
2024/01/09 13:13:44;;;;;;;;;;;19.20;61.60;;;;;;7317010;19;9359;-67
2024/01/09 13:16:13;;;;;;;;;;;19.10;62.10;;;;;;7317434;19;9355;-67
2024/01/09 13:18:42;;;;;;;;;;;19.10;61.50;;;;;;7318473;19;10207;-66
2024/01/09 13:21:11;;;;;;;;;;;19.10;61.60;;;;;;7319317;19;9165;-66
2024/01/09 13:23:40;;;;;;;;;;;19.10;61.60;;;;;;7320720;19;9197;-66
2024/01/09 13:26:09;;;;;;;;;;;19.10;61.60;;;;;;7316773;19;9313;-66
2024/01/09 13:28:41;;;;;;;;;;;19.00;61.70;;;;;;7320487;19;9431;-66
2024/01/09 13:31:12;;;;;;;;;;;19.00;61.70;;;;;;7317506;19;9274;-66
2024/01/09 13:33:41;;;;;;;;;;;18.90;61.70;;;;;;7318505;19;9232;-66
2024/01/09 13:36:11;;;;;;;;;;;18.90;61.80;;;;;;7315824;19;10391;-66
2024/01/09 13:38:40;;;;;;;;;;;18.90;61.80;;;;;;7319758;19;9504;-67
2024/01/09 13:41:12;;;;;;;;;;;18.80;61.90;;;;;;7316814;19;9351;-66
2024/01/09 13:43:44;;;;;;;;;;;18.80;61.80;;;;;;7313957;19;9201;-66
2024/01/09 13:46:14;;;;;;;;;;;18.80;61.80;;;;;;7318153;19;9445;-67
2024/01/09 13:48:44;;;;;;;;;;;18.70;61.90;;;;;;7316390;19;9332;-66
2024/01/09 13:51:13;;;;;;;;;;;18.70;61.90;;;;;;7318020;19;9586;-66
2024/01/09 13:53:43;;;;;;;;;;;18.70;61.90;;;;;;7320662;19;9272;-66
2024/01/09 13:56:11;;;;;;;;;;;18.70;62.00;;;;;;7318854;19;9499;-66
2024/01/09 13:58:41;;;;;;;;;;;18.70;62.00;;;;;;7319020;19;9638;-66
2024/01/09 14:01:13;;;;;;;;;;;18.70;62.00;;;;;;7318418;19;9739;-66
2024/01/09 14:03:42;;;;;;;;;;;18.70;62.00;;;;;;7319910;19;9481;-66
2024/01/09 14:06:15;;;;;;;;;;;18.70;62.00;;;;;;7314855;19;9175;-66
2024/01/09 14:08:44;;;;;;;;;;;18.70;62.00;;;;;;7320090;19;9190;-66
2024/01/09 14:11:13;;;;;;;;;;;18.70;62.00;;;;;;7314987;19;9675;-66
2024/01/09 14:13:41;;;;;;;;;;;18.70;62.00;;;;;;7316638;19;9234;-66
2024/01/09 14:16:13;;;;;;;;;;;18.70;61.90;;;;;;7312020;19;9410;-67
2024/01/09 14:18:44;;;;;;;;;;;18.70;61.90;;;;;;7317843;19;9540;-66
2024/01/09 14:21:13;;;;;;;;;;;18.70;62.00;;;;;;7317058;19;9183;-68
2024/01/09 14:24:01;;;;;;;;;;;18.70;61.90;;;;;;7316461;19;9435;-67
2024/01/09 14:26:31;;;;;;;;;;;18.70;61.90;;;;;;7318830;19;9418;-67
2024/01/09 14:29:00;;;;;;;;;;;18.80;61.90;;;;;;7317895;19;9460;-67
2024/01/09 14:31:32;;;;;;;;;;;18.70;62.00;;;;;;7316515;19;9485;-69
2024/01/09 14:34:02;;;;;;;;;;;18.70;61.90;;;;;;7319030;19;9523;-68
2024/01/09 14:36:33;;;;;;;;;;;18.80;61.80;;;;;;7316468;19;10644;-67
2024/01/09 14:39:02;;;;;;;;;;;18.80;61.90;;;;;;7317069;19;9203;-68
2024/01/09 14:41:39;;;;;;;;;;;18.80;61.70;;;;;;7314036;19;9299;-68
2024/01/09 14:44:08;;;;;;;;;;;18.80;61.80;;;;;;7317896;19;9133;-65
2024/01/09 14:46:40;;;;;;;;;;;18.80;61.70;;;;;;7314859;19;9136;-67
2024/01/09 14:49:30;;;;;;;;;;;18.80;61.80;;;;;;7315298;19;9950;-66